Time;durP1;ratioP1;P1;durP2;ratioP2;P2;SDS_P1;SDS_P2;PMS_P1;PMS_P2;Temp;Humidity;BMP_temperature;BMP_pressure;BME280_temperature;BME280_humidity;BME280_pressure;Samples;Min_cycle;Max_cycle;Signal;HPM_P1;HPM_P2
2022/10/03 05:19:31;;;;;;;5.60;1.00;;;15.50;71.50;;;;;;4918509;24;20051;-76
2022/10/03 05:22:02;;;;;;;3.75;0.93;;;15.50;71.60;;;;;;4806218;29;20079;-76
2022/10/03 05:24:49;;;;;;;7.28;2.50;;;15.50;71.60;;;;;;4806295;29;20055;-77
2022/10/03 05:27:21;;;;;;;8.57;1.20;;;15.60;72.10;;;;;;4807456;29;20054;-75
2022/10/03 05:29:58;;;;;;;4.95;0.80;;;15.60;72.20;;;;;;4791954;29;20063;-75
2022/10/03 05:32:30;;;;;;;3.58;0.80;;;15.60;72.30;;;;;;4789599;30;20066;-77
2022/10/03 05:35:23;;;;;;;8.35;1.08;;;15.60;72.00;;;;;;4791761;29;20497;-78
2022/10/03 05:38:06;;;;;;;8.85;1.30;;;15.70;71.70;;;;;;4808528;29;20055;-79
2022/10/03 05:40:35;;;;;;;7.25;1.20;;;15.70;71.60;;;;;;4810968;29;20047;-82
2022/10/03 05:43:21;;;;;;;5.40;1.40;;;15.70;71.60;;;;;;4811803;29;20126;-80
2022/10/03 05:45:50;;;;;;;8.00;1.85;;;15.60;71.40;;;;;;4816558;29;20058;-79
2022/10/03 05:48:32;;;;;;;9.93;1.23;;;15.60;71.40;;;;;;4810834;29;20094;-76
2022/10/03 05:51:32;;;;;;;7.05;1.52;;;15.60;71.50;;;;;;4810924;29;20086;-81
2022/10/03 05:54:10;;;;;;;12.57;2.17;;;15.60;71.50;;;;;;4803350;29;20053;-76
2022/10/03 05:56:51;;;;;;;6.93;0.93;;;15.60;71.10;;;;;;4810239;29;20449;-77
2022/10/03 05:59:40;;;;;;;7.40;1.48;;;15.60;70.90;;;;;;4810159;29;20058;-77
2022/10/03 06:02:24;;;;;;;11.15;2.05;;;15.50;71.00;;;;;;4810078;29;20042;-77
2022/10/03 06:05:08;;;;;;;9.52;1.30;;;15.50;71.00;;;;;;4810736;29;20055;-76
2022/10/03 06:08:03;;;;;;;8.77;1.27;;;15.50;71.00;;;;;;4810619;29;20356;-80
2022/10/03 06:10:49;;;;;;;9.75;1.75;;;15.50;71.10;;;;;;4808701;29;20086;-71
2022/10/03 06:13:47;;;;;;;7.78;1.40;;;15.40;71.40;;;;;;4809564;29;20430;-76
2022/10/03 06:16:24;;;;;;;7.38;1.63;;;15.50;71.40;;;;;;4809505;29;20554;-79
2022/10/03 06:19:09;;;;;;;8.50;1.52;;;15.50;71.10;;;;;;4809812;29;20062;-75
2022/10/03 06:21:53;;;;;;;7.93;1.65;;;15.60;70.90;;;;;;4809516;29;20067;-76
2022/10/03 06:25:01;;;;;;;6.80;1.40;;;15.60;70.60;;;;;;4794031;29;20058;-77
2022/10/03 06:28:01;;;;;;;10.07;1.67;;;15.60;70.50;;;;;;4809836;29;20090;-82
2022/10/03 06:30:55;;;;;;;15.25;1.75;;;15.60;70.50;;;;;;4809766;29;20127;-76
2022/10/03 06:33:36;;;;;;;7.45;1.33;;;15.60;70.80;;;;;;4806093;29;20398;-77
2022/10/03 06:36:35;;;;;;;6.40;1.52;;;15.60;70.90;;;;;;4809384;29;20047;-75
2022/10/03 06:39:13;;;;;;;9.90;1.50;;;15.60;70.90;;;;;;4793881;29;20110;-75
2022/10/03 06:41:57;;;;;;;7.97;1.45;;;15.70;71.10;;;;;;4809413;29;20038;-75
2022/10/03 06:44:39;;;;;;;;;;;15.70;71.10;;;;;;4809949;29;20419;-77
2022/10/03 06:47:22;;;;;;;7.75;1.20;;;15.60;71.10;;;;;;4809277;29;20422;-77
2022/10/03 06:50:20;;;;;;;9.07;1.52;;;15.70;71.20;;;;;;4793509;29;20063;-75
2022/10/03 06:52:59;;;;;;;6.57;1.17;;;15.70;71.20;;;;;;4809185;29;20047;-77
2022/10/03 06:55:34;;;;;;;7.10;1.75;;;15.70;71.20;;;;;;4809348;29;20063;-75
2022/10/03 06:58:36;;;;;;;6.82;1.60;;;15.80;71.20;;;;;;4809353;29;20082;-75
2022/10/03 07:01:13;;;;;;;6.28;1.55;;;15.80;71.20;;;;;;4809604;29;20086;-78
2022/10/03 07:04:24;;;;;;;5.72;1.45;;;15.80;71.20;;;;;;4808665;29;20051;-76
2022/10/03 07:07:04;;;;;;;4.47;1.10;;;15.80;71.20;;;;;;4804658;29;20063;-76
2022/10/03 07:09:38;;;;;;;4.50;0.85;;;15.80;71.20;;;;;;4808905;29;20055;-77
2022/10/03 07:12:42;;;;;;;9.68;1.30;;;15.80;71.20;;;;;;4808740;29;20051;-74
2022/10/03 07:15:17;;;;;;;3.33;0.77;;;15.90;71.20;;;;;;4793666;29;20489;-75
2022/10/03 07:17:42;;;;;;;7.32;1.35;;;15.90;71.20;;;;;;4808429;29;20111;-74
2022/10/03 07:20:25;;;;;;;6.32;1.70;;;15.90;71.30;;;;;;4808645;29;20113;-72
2022/10/03 07:23:13;;;;;;;5.63;1.48;;;15.90;71.30;;;;;;4808799;29;20050;-73
2022/10/03 07:25:58;;;;;;;5.93;1.52;;;15.90;71.40;;;;;;4807978;29;20059;-78
2022/10/03 07:28:55;;;;;;;6.75;1.45;;;15.90;71.40;;;;;;4809030;29;20408;-80
2022/10/03 07:31:42;;;;;;;5.70;1.73;;;15.90;71.50;;;;;;4809062;29;20108;-74
2022/10/03 07:34:39;;;;;;;6.15;1.25;;;15.90;71.60;;;;;;4807761;29;20057;-78
2022/10/03 07:40:29;;;;;;;7.30;1.65;;;15.90;71.80;;;;;;4808711;29;20447;-76
2022/10/03 07:43:23;;;;;;;4.82;1.63;;;15.90;71.80;;;;;;4788314;29;20039;-74
2022/10/03 07:46:18;;;;;;;5.85;1.30;;;15.90;71.90;;;;;;4807988;29;20079;-74
2022/10/03 07:49:18;;;;;;;7.38;1.65;;;15.90;72.00;;;;;;4805528;29;20459;-75
2022/10/03 07:52:14;;;;;;;8.68;1.88;;;15.90;72.00;;;;;;4807809;29;20042;-76
2022/10/03 07:55:13;;;;;;;7.28;1.40;;;15.90;72.00;;;;;;4811173;29;20058;-76
2022/10/03 07:57:44;;;;;;;6.32;1.85;;;15.90;72.00;;;;;;4786987;29;20059;-74
2022/10/03 08:00:21;;;;;;;3.72;1.10;;;16.00;72.10;;;;;;4807442;29;20447;-76
2022/10/03 08:03:05;;;;;;;4.93;1.10;;;16.00;72.10;;;;;;4791316;29;20460;-76
2022/10/03 08:05:49;;;;;;;4.95;0.95;;;16.00;72.10;;;;;;4807193;29;20047;-78
2022/10/03 08:08:52;;;;;;;5.07;1.65;;;16.00;72.10;;;;;;4807347;29;20097;-76
2022/10/03 08:11:27;;;;;;;4.50;1.05;;;16.00;72.10;;;;;;4810002;29;20050;-77
2022/10/03 08:14:24;;;;;;;9.05;1.75;;;16.00;72.20;;;;;;4825747;29;20172;-74
2022/10/03 08:17:08;;;;;;;4.38;0.77;;;16.10;72.30;;;;;;4789833;30;20130;-72
2022/10/03 08:20:24;;;;;;;10.93;1.17;;;16.10;72.40;;;;;;4789889;30;20397;-75
2022/10/03 08:23:09;;;;;;;4.28;0.80;;;16.10;72.40;;;;;;4766043;30;20063;-78
2022/10/03 08:25:59;;;;;;;5.88;1.30;;;16.10;72.40;;;;;;4790192;30;20059;-74
2022/10/03 08:28:40;;;;;;;3.13;1.15;;;16.10;72.50;;;;;;4822584;29;20050;-78
2022/10/03 08:31:31;;;;;;;4.80;1.30;;;16.20;72.70;;;;;;4825983;29;20058;-76
2022/10/03 08:34:32;;;;;;;6.13;1.58;;;16.20;72.70;;;;;;4826031;29;20064;-76
2022/10/03 08:37:37;;;;;;;5.65;1.25;;;16.20;72.80;;;;;;4824899;29;20057;-77
2022/10/03 08:40:41;;;;;;;7.82;1.70;;;16.20;72.80;;;;;;4770239;30;20353;-77
2022/10/03 08:43:28;;;;;;;5.78;1.05;;;16.20;72.80;;;;;;4759999;30;20048;-76
2022/10/03 08:46:17;;;;;;;5.90;1.02;;;16.30;73.00;;;;;;4816281;29;20373;-76
2022/10/03 08:48:55;;;;;;;5.00;1.00;;;16.30;72.90;;;;;;4786741;29;20138;-77
2022/10/03 08:51:55;;;;;;;4.65;0.85;;;16.30;72.90;;;;;;4807604;29;20055;-77
2022/10/03 08:54:47;;;;;;;5.43;1.20;;;16.30;73.00;;;;;;4807015;29;20055;-77
2022/10/03 08:57:48;;;;;;;6.18;1.23;;;16.30;73.00;;;;;;4807571;29;20061;-77
2022/10/03 09:00:20;;;;;;;6.78;1.00;;;16.40;73.10;;;;;;4796924;29;20212;-79
2022/10/03 09:02:52;;;;;;;6.53;0.90;;;16.40;73.10;;;;;;4791804;29;20095;-78
2022/10/03 09:05:48;;;;;;;4.18;0.60;;;16.40;73.20;;;;;;4807461;29;20130;-78
2022/10/03 09:08:58;;;;;;;4.63;1.42;;;16.40;73.40;;;;;;4807406;29;20079;-77
2022/10/03 09:11:32;;;;;;;4.78;0.77;;;16.40;72.90;;;;;;4789710;29;20113;-78
2022/10/03 09:14:30;;;;;;;8.18;0.80;;;16.40;73.00;;;;;;4800102;29;20467;-78
2022/10/03 09:17:18;;;;;;;4.45;1.25;;;16.40;73.60;;;;;;4811093;29;20478;-79
2022/10/03 09:20:12;;;;;;;5.90;1.38;;;16.40;73.00;;;;;;4810079;29;20054;-78
2022/10/03 09:22:59;;;;;;;3.65;0.70;;;16.40;73.00;;;;;;4810859;29;20151;-76
2022/10/03 09:25:43;;;;;;;8.27;1.15;;;16.40;73.00;;;;;;4806603;29;20073;-78
2022/10/03 09:28:57;;;;;;;4.32;0.70;;;16.50;73.10;;;;;;4792922;30;20047;-79
2022/10/03 09:31:54;;;;;;;2.38;0.70;;;16.50;73.30;;;;;;4793130;30;20094;-78
2022/10/03 09:34:38;;;;;;;3.05;0.55;;;16.50;73.20;;;;;;4782198;29;20094;-77
2022/10/03 09:37:18;;;;;;;3.35;0.32;;;16.50;73.20;;;;;;4811004;29;20047;-76
2022/10/03 09:40:13;;;;;;;4.30;0.93;;;16.50;73.10;;;;;;4795100;29;20133;-77
2022/10/03 09:43:09;;;;;;;6.45;1.17;;;16.50;73.20;;;;;;4809687;29;20140;-76
2022/10/03 09:45:56;;;;;;;4.57;0.70;;;16.50;73.20;;;;;;4809339;29;20425;-76
2022/10/03 09:48:45;;;;;;;6.13;0.75;;;16.60;73.10;;;;;;4794717;29;20458;-76
2022/10/03 09:51:11;;;;;;;5.22;0.82;;;16.60;73.30;;;;;;4810511;29;20151;-77
2022/10/03 09:54:04;;;;;;;3.97;0.55;;;16.60;73.20;;;;;;4810164;29;20135;-78
2022/10/03 09:56:53;;;;;;;5.73;0.70;;;16.60;73.20;;;;;;4810209;29;20153;-77
2022/10/03 09:59:47;;;;;;;2.70;0.45;;;16.60;73.20;;;;;;4809656;29;20090;-79
2022/10/03 10:02:22;;;;;;;4.20;0.65;;;16.60;73.30;;;;;;4793854;29;20125;-77
2022/10/03 10:05:22;;;;;;;5.70;0.82;;;16.70;73.00;;;;;;4810151;29;20119;-77
2022/10/03 10:08:07;;;;;;;3.67;0.85;;;16.60;72.80;;;;;;4809397;29;20051;-78
2022/10/03 10:10:41;;;;;;;4.53;0.90;;;16.60;72.70;;;;;;4808846;29;20134;-73
2022/10/03 10:13:07;;;;;;;5.00;0.75;;;16.70;72.70;;;;;;4794155;29;20497;-79
2022/10/03 10:15:54;;;;;;;6.50;1.13;;;16.70;72.70;;;;;;4794274;29;20058;-79
2022/10/03 10:18:31;;;;;;;5.20;1.05;;;16.70;72.80;;;;;;4793832;29;20112;-79
2022/10/03 10:21:15;;;;;;;12.48;1.08;;;16.70;72.80;;;;;;4810094;29;20446;-79
2022/10/03 10:24:08;;;;;;;5.65;0.70;;;16.70;72.90;;;;;;4808590;29;20046;-78
2022/10/03 10:27:21;;;;;;;6.20;0.90;;;16.70;72.90;;;;;;4794840;29;20137;-78
2022/10/03 10:30:08;;;;;;;7.15;0.90;;;16.70;73.00;;;;;;4809317;29;20527;-79
2022/10/03 10:33:06;;;;;;;5.15;1.15;;;16.70;72.80;;;;;;4810319;29;20051;-80
2022/10/03 10:35:31;;;;;;;5.60;0.75;;;16.70;72.80;;;;;;4809331;29;20051;-77
2022/10/03 10:38:15;;;;;;;4.18;0.50;;;16.70;72.70;;;;;;4809696;29;20510;-76
2022/10/03 10:41:35;;;;;;;6.60;0.88;;;16.70;73.40;;;;;;4809539;29;20084;-77
2022/10/03 10:44:22;;;;;;;4.97;0.68;;;16.80;73.00;;;;;;4808352;29;20078;-77
2022/10/03 10:47:22;;;;;;;7.85;0.80;;;16.80;72.80;;;;;;4809631;29;20055;-78
2022/10/03 10:50:06;;;;;;;7.90;1.17;;;16.80;72.80;;;;;;4809536;29;20051;-78
2022/10/03 10:53:09;;;;;;;6.22;0.65;;;16.80;72.80;;;;;;4809504;29;20482;-77
2022/10/03 10:55:53;;;;;;;3.55;0.70;;;16.80;72.80;;;;;;4809126;29;20069;-76
2022/10/03 10:58:34;;;;;;;5.47;0.68;;;16.80;72.80;;;;;;4808488;29;20073;-74
2022/10/03 11:01:27;;;;;;;5.18;0.93;;;16.80;72.70;;;;;;4808986;29;20501;-80
2022/10/03 11:04:26;;;;;;;5.50;0.70;;;16.80;72.70;;;;;;4793658;29;20121;-79
2022/10/03 11:06:58;;;;;;;5.30;0.90;;;16.80;72.60;;;;;;4793526;29;20062;-78
2022/10/03 11:09:56;;;;;;;2.83;0.88;;;16.80;72.70;;;;;;4793496;29;20469;-77
2022/10/03 11:12:28;;;;;;;3.33;0.60;;;16.80;72.60;;;;;;4808189;29;20057;-79
2022/10/03 11:15:34;;;;;;;3.53;0.70;;;16.80;72.60;;;;;;4793007;29;20050;-81
2022/10/03 11:18:16;;;;;;;3.58;0.70;;;16.80;72.60;;;;;;4808764;29;20059;-79
2022/10/03 11:21:03;;;;;;;5.22;0.65;;;16.80;72.60;;;;;;4792875;29;20060;-80
2022/10/03 11:24:06;;;;;;;4.72;0.73;;;16.90;72.70;;;;;;4809449;29;20062;-81
2022/10/03 11:26:38;;;;;;;4.88;0.73;;;16.90;72.70;;;;;;4808548;29;20051;-81
2022/10/03 11:29:39;;;;;;;3.60;0.60;;;16.80;72.60;;;;;;4778408;29;20055;-80
2022/10/03 11:32:43;;;;;;;6.18;0.52;;;16.90;72.70;;;;;;4794969;29;20180;-79
2022/10/03 11:35:34;;;;;;;2.85;0.50;;;16.90;72.80;;;;;;4791709;29;20050;-79
2022/10/03 11:38:11;;;;;;;3.45;0.55;;;16.90;72.80;;;;;;4809461;29;20058;-79
2022/10/03 11:41:14;;;;;;;2.47;0.60;;;16.90;72.80;;;;;;4809178;29;20095;-79
2022/10/03 11:44:11;;;;;;;1.95;0.63;;;16.90;72.80;;;;;;4807858;29;20124;-80
2022/10/03 11:46:57;;;;;;;1.92;0.65;;;16.90;72.80;;;;;;4808500;29;20054;-79
2022/10/03 11:49:35;;;;;;;2.90;0.73;;;16.90;72.80;;;;;;4808640;29;20047;-79
2022/10/03 11:52:17;;;;;;;2.30;0.60;;;16.90;72.80;;;;;;4808808;29;20051;-79
2022/10/03 11:54:46;;;;;;;4.18;0.73;;;16.90;72.80;;;;;;4792314;29;20486;-79
2022/10/03 11:57:29;;;;;;;2.53;0.55;;;16.90;72.80;;;;;;4808631;29;20107;-81
2022/10/03 12:00:18;;;;;;;5.22;0.77;;;16.90;72.80;;;;;;4808324;29;20455;-79
2022/10/03 12:02:44;;;;;;;1.92;0.70;;;16.90;72.80;;;;;;4792000;29;20127;-80
2022/10/03 12:05:27;;;;;;;1.85;0.30;;;16.90;72.90;;;;;;4808467;29;20451;-79
2022/10/03 12:11:22;;;;;;;2.00;0.52;;;16.90;72.90;;;;;;4792222;29;20417;-80
2022/10/03 12:14:22;;;;;;;2.55;0.25;;;16.90;72.80;;;;;;4792601;29;20076;-78
2022/10/03 12:17:04;;;;;;;2.10;0.50;;;16.90;72.80;;;;;;4808066;29;20351;-79
2022/10/03 12:19:34;;;;;;;2.63;0.57;;;16.90;72.80;;;;;;4807675;29;20075;-79
2022/10/03 12:22:16;;;;;;;2.45;0.52;;;16.90;72.90;;;;;;4791903;29;20092;-79
2022/10/03 12:24:44;;;;;;;2.03;0.38;;;17.00;72.90;;;;;;4807888;29;20062;-80
2022/10/03 12:27:18;;;;;;;2.88;0.38;;;16.90;72.90;;;;;;4792406;29;20055;-79
2022/10/03 12:29:53;;;;;;;2.22;0.38;;;16.90;72.90;;;;;;4808100;29;20058;-78
2022/10/03 12:32:43;;;;;;;2.10;0.50;;;16.90;72.90;;;;;;4807497;29;20522;-79
2022/10/03 12:35:42;;;;;;;2.78;0.40;;;17.00;72.90;;;;;;4807194;29;20090;-79
2022/10/03 12:38:38;;;;;;;4.55;0.60;;;17.00;72.80;;;;;;4792838;29;20081;-73
2022/10/03 12:41:12;;;;;;;7.25;1.02;;;17.00;72.70;;;;;;4788648;29;20058;-70
2022/10/03 12:43:37;;;;;;;8.80;1.48;;;16.90;72.60;;;;;;4790908;29;20054;-75
2022/10/03 12:46:34;;;;;;;14.45;1.45;;;17.00;72.60;;;;;;4807617;29;20070;-74
2022/10/03 18:13:27;;;;;;;6.20;1.10;;;17.30;73.40;;;;;;5272317;24;20141;-75
2022/10/03 18:16:17;;;;;;;9.32;1.13;;;17.40;73.40;;;;;;4846011;29;20358;-75
2022/10/03 18:18:44;;;;;;;5.55;0.80;;;17.40;73.50;;;;;;4846353;29;20457;-75
2022/10/03 18:21:26;;;;;;;7.45;0.90;;;17.40;73.60;;;;;;4846328;29;20053;-75
2022/10/03 18:24:11;;;;;;;5.80;1.00;;;17.40;73.50;;;;;;4846223;29;20054;-77
2022/10/03 18:26:42;;;;;;;4.45;1.30;;;17.40;73.30;;;;;;4846189;29;20113;-77
2022/10/03 18:29:26;;;;;;;6.00;1.98;;;17.40;73.80;;;;;;4846145;29;20434;-75
2022/10/03 18:31:56;;;;;;;;;;;17.40;72.80;;;;;;4846532;29;20050;-76
2022/10/03 18:34:40;;;;;;;5.43;1.90;;;17.30;72.80;;;;;;4829965;29;19924;-76
2022/10/03 18:37:35;;;;;;;4.97;2.03;;;17.20;71.90;;;;;;4845088;29;20057;-75
2022/10/03 18:40:04;;;;;;;6.93;1.77;;;17.20;71.50;;;;;;4832980;29;20090;-73
2022/10/03 18:42:30;;;;;;;7.35;1.90;;;17.10;71.10;;;;;;4845870;29;20521;-74
2022/10/03 18:45:00;;;;;;;5.95;1.95;;;17.00;71.20;;;;;;4829262;29;20065;-77
2022/10/03 18:47:42;;;;;;;7.03;1.92;;;16.90;71.20;;;;;;4845693;29;20445;-75
2022/10/03 18:50:17;;;;;;;4.68;1.65;;;16.70;71.40;;;;;;4845787;29;20054;-74
2022/10/03 18:52:52;;;;;;;6.75;2.38;;;16.60;71.70;;;;;;4830019;29;20366;-73
2022/10/03 18:55:46;;;;;;;7.18;2.45;;;16.50;72.00;;;;;;4845907;29;20054;-77
2022/10/03 18:58:24;;;;;;;7.47;2.35;;;16.50;72.20;;;;;;4814456;29;20068;-79
2022/10/03 19:01:17;;;;;;;6.55;2.45;;;16.40;72.30;;;;;;4845767;29;20125;-75
2022/10/03 19:03:54;;;;;;;5.85;2.10;;;16.30;72.60;;;;;;4829728;29;20165;-73
2022/10/03 19:06:32;;;;;;;5.95;2.13;;;16.20;72.90;;;;;;4846053;29;20118;-74
2022/10/03 19:09:18;;;;;;;5.75;1.92;;;16.20;73.10;;;;;;4845873;29;20465;-74
2022/10/03 19:11:51;;;;;;;6.65;1.70;;;16.20;73.40;;;;;;4845952;29;20049;-73
2022/10/03 19:14:27;;;;;;;9.27;2.30;;;16.10;73.50;;;;;;4844903;29;20078;-71
2022/10/03 19:17:13;;;;;;;7.43;2.30;;;16.00;73.50;;;;;;4845691;29;20286;-73
2022/10/03 19:19:49;;;;;;;6.78;1.75;;;16.00;73.60;;;;;;4845464;29;20060;-72
2022/10/03 19:22:20;;;;;;;6.78;1.80;;;16.00;73.70;;;;;;4845579;29;20457;-72
2022/10/03 19:24:48;;;;;;;4.47;2.13;;;16.00;73.90;;;;;;4845812;29;20053;-72
2022/10/03 19:27:24;;;;;;;6.60;2.45;;;15.90;73.90;;;;;;4845198;29;20054;-71
2022/10/03 19:29:54;;;;;;;8.32;2.08;;;15.90;74.00;;;;;;4826945;29;20050;-71
2022/10/03 19:32:27;;;;;;;9.32;2.85;;;15.90;74.30;;;;;;4833395;29;20130;-71
2022/10/03 19:35:02;;;;;;;6.73;2.40;;;15.90;74.30;;;;;;4845806;29;20334;-71
2022/10/03 19:37:44;;;;;;;8.82;2.10;;;15.90;74.40;;;;;;4845598;29;20085;-71
2022/10/03 19:40:22;;;;;;;7.80;2.10;;;15.90;74.50;;;;;;4845152;29;20420;-72
2022/10/03 19:42:53;;;;;;;4.35;2.15;;;15.80;74.60;;;;;;4845299;29;20054;-71
2022/10/03 19:45:19;;;;;;;7.90;2.80;;;15.80;74.70;;;;;;4844817;29;20480;-72
2022/10/03 19:47:56;;;;;;;9.07;2.47;;;15.80;74.70;;;;;;4844799;29;20089;-72
2022/10/03 19:50:35;;;;;;;6.40;2.65;;;15.80;74.70;;;;;;4844614;29;20058;-72
2022/10/03 19:53:13;;;;;;;7.63;2.60;;;15.80;74.70;;;;;;4845208;29;20377;-71
2022/10/03 19:55:40;;;;;;;13.10;3.33;;;15.80;74.70;;;;;;4832040;29;20049;-71
2022/10/03 19:58:20;;;;;;;5.43;2.17;;;15.80;74.80;;;;;;4844452;29;20082;-72
2022/10/03 20:00:56;;;;;;;7.65;2.40;;;15.70;74.70;;;;;;4844613;29;20056;-72
2022/10/03 20:03:43;;;;;;;6.68;2.58;;;15.70;74.70;;;;;;4844607;29;20053;-72
2022/10/03 20:06:14;;;;;;;7.72;3.50;;;15.70;74.80;;;;;;4844694;29;20364;-71
2022/10/03 20:09:00;;;;;;;7.88;2.92;;;15.70;74.80;;;;;;4844378;29;20117;-72
2022/10/03 20:11:44;;;;;;;6.65;2.55;;;15.60;74.80;;;;;;4844501;29;20054;-72
2022/10/03 20:14:18;;;;;;;6.82;2.75;;;15.70;75.00;;;;;;4844721;29;20061;-72
2022/10/03 20:16:46;;;;;;;;;;;15.70;75.10;;;;;;4844845;29;20529;-72
2022/10/03 20:19:27;;;;;;;6.97;2.80;;;15.60;75.10;;;;;;4844646;29;19924;-72
2022/10/03 20:21:55;;;;;;;9.30;2.90;;;15.60;75.30;;;;;;4844681;29;20385;-73
2022/10/03 20:24:27;;;;;;;9.80;3.17;;;15.60;75.50;;;;;;4844691;29;20526;-73
2022/10/03 20:27:06;;;;;;;11.80;3.08;;;15.60;75.70;;;;;;4843921;29;20053;-74
2022/10/03 20:29:37;;;;;;;8.95;3.08;;;15.60;75.70;;;;;;4829109;29;20128;-72
2022/10/03 20:32:05;;;;;;;6.93;3.25;;;15.60;75.80;;;;;;4844238;29;20049;-73
2022/10/03 20:34:34;;;;;;;8.15;3.30;;;15.60;76.00;;;;;;4845051;29;20089;-73
2022/10/03 20:37:00;;;;;;;7.85;3.60;;;15.60;76.10;;;;;;4844504;29;20125;-73
2022/10/03 20:39:35;;;;;;;6.97;3.20;;;15.60;76.20;;;;;;4844182;29;20069;-73
2022/10/03 20:42:11;;;;;;;9.15;3.38;;;15.60;76.30;;;;;;4844128;29;20058;-74
2022/10/03 20:45:01;;;;;;;8.43;3.47;;;15.60;76.30;;;;;;4844228;29;20088;-73
2022/10/03 20:47:49;;;;;;;7.90;4.07;;;15.60;76.30;;;;;;4844416;29;20442;-73
2022/10/03 20:50:29;;;;;;;8.32;3.83;;;15.60;76.50;;;;;;4843745;29;20061;-74
2022/10/03 20:53:08;;;;;;;9.20;4.13;;;15.60;76.60;;;;;;4844105;29;20065;-73
2022/10/03 20:55:46;;;;;;;10.07;3.92;;;15.60;76.60;;;;;;4844344;29;20054;-75
2022/10/03 20:58:31;;;;;;;10.82;4.60;;;15.60;76.60;;;;;;4844862;29;20350;-74
2022/10/03 21:01:06;;;;;;;7.72;3.72;;;15.60;76.60;;;;;;4844557;29;20154;-74
2022/10/03 21:03:51;;;;;;;8.15;3.85;;;15.60;76.70;;;;;;4830733;29;20072;-73
